sensor_id;sensor_type;location;lat;lon;timestamp;temperature;humidity
12769;DHT22;6448;48.916;8.990;2023-08-24T00:00:58;27.90;45.10
12769;DHT22;6448;48.916;8.990;2023-08-24T00:02:00;27.90;45.10
12769;DHT22;6448;48.916;8.990;2023-08-24T00:03:03;27.90;45.10
12769;DHT22;6448;48.916;8.990;2023-08-24T00:04:05;27.90;45.10
12769;DHT22;6448;48.916;8.990;2023-08-24T00:05:06;27.90;45.10
12769;DHT22;6448;48.916;8.990;2023-08-24T00:06:08;27.90;45.10
12769;DHT22;6448;48.916;8.990;2023-08-24T00:07:09;27.90;45.10
12769;DHT22;6448;48.916;8.990;2023-08-24T00:08:10;27.90;45.10
12769;DHT22;6448;48.916;8.990;2023-08-24T00:09:12;27.80;45.10
12769;DHT22;6448;48.916;8.990;2023-08-24T00:10:13;27.80;45.10
12769;DHT22;6448;48.916;8.990;2023-08-24T00:11:14;27.80;45.10
12769;DHT22;6448;48.916;8.990;2023-08-24T00:12:15;27.80;45.20
12769;DHT22;6448;48.916;8.990;2023-08-24T00:13:17;27.80;45.20
12769;DHT22;6448;48.916;8.990;2023-08-24T00:14:18;27.80;45.20
12769;DHT22;6448;48.916;8.990;2023-08-24T00:15:20;27.80;45.20
12769;DHT22;6448;48.916;8.990;2023-08-24T00:16:21;27.80;45.20
12769;DHT22;6448;48.916;8.990;2023-08-24T00:17:22;27.80;45.20
12769;DHT22;6448;48.916;8.990;2023-08-24T00:18:26;27.70;45.10
12769;DHT22;6448;48.916;8.990;2023-08-24T00:19:27;27.70;45.20
12769;DHT22;6448;48.916;8.990;2023-08-24T00:20:29;27.70;45.30
12769;DHT22;6448;48.916;8.990;2023-08-24T00:21:29;27.70;45.30
12769;DHT22;6448;48.916;8.990;2023-08-24T00:22:31;27.70;45.30
12769;DHT22;6448;48.916;8.990;2023-08-24T00:23:32;27.70;45.40
12769;DHT22;6448;48.916;8.990;2023-08-24T00:24:34;27.70;45.40
12769;DHT22;6448;48.916;8.990;2023-08-24T00:25:34;27.70;45.50
12769;DHT22;6448;48.916;8.990;2023-08-24T00:26:36;27.70;45.50
12769;DHT22;6448;48.916;8.990;2023-08-24T00:27:37;27.70;45.50
12769;DHT22;6448;48.916;8.990;2023-08-24T00:28:39;27.70;45.50
12769;DHT22;6448;48.916;8.990;2023-08-24T00:29:39;27.60;45.40
12769;DHT22;6448;48.916;8.990;2023-08-24T00:30:41;27.60;45.40
12769;DHT22;6448;48.916;8.990;2023-08-24T00:31:42;27.40;45.30
12769;DHT22;6448;48.916;8.990;2023-08-24T00:32:45;27.60;45.50
12769;DHT22;6448;48.916;8.990;2023-08-24T00:33:47;27.60;45.50
12769;DHT22;6448;48.916;8.990;2023-08-24T00:34:51;27.60;45.50
12769;DHT22;6448;48.916;8.990;2023-08-24T00:35:51;27.60;45.50
12769;DHT22;6448;48.916;8.990;2023-08-24T00:36:53;27.50;45.50
12769;DHT22;6448;48.916;8.990;2023-08-24T00:37:54;27.50;45.50
12769;DHT22;6448;48.916;8.990;2023-08-24T00:38:55;27.50;45.60
12769;DHT22;6448;48.916;8.990;2023-08-24T00:39:57;27.50;45.60
12769;DHT22;6448;48.916;8.990;2023-08-24T00:40:58;27.50;46.30
12769;DHT22;6448;48.916;8.990;2023-08-24T00:42:00;27.50;45.70
12769;DHT22;6448;48.916;8.990;2023-08-24T00:43:01;27.50;45.70
12769;DHT22;6448;48.916;8.990;2023-08-24T00:44:03;27.50;45.70
12769;DHT22;6448;48.916;8.990;2023-08-24T00:45:06;27.50;45.80
12769;DHT22;6448;48.916;8.990;2023-08-24T00:46:10;27.50;45.80
12769;DHT22;6448;48.916;8.990;2023-08-24T00:47:10;27.50;45.80
12769;DHT22;6448;48.916;8.990;2023-08-24T00:48:12;27.50;45.80
12769;DHT22;6448;48.916;8.990;2023-08-24T00:49:14;27.50;45.90
12769;DHT22;6448;48.916;8.990;2023-08-24T00:50:17;27.40;45.80
12769;DHT22;6448;48.916;8.990;2023-08-24T00:51:18;27.40;45.80
12769;DHT22;6448;48.916;8.990;2023-08-24T00:52:20;27.40;45.90
12769;DHT22;6448;48.916;8.990;2023-08-24T00:53:24;27.40;45.90
12769;DHT22;6448;48.916;8.990;2023-08-24T00:54:25;27.40;45.80
12769;DHT22;6448;48.916;8.990;2023-08-24T00:55:27;27.40;45.80
12769;DHT22;6448;48.916;8.990;2023-08-24T00:56:28;27.40;45.90
12769;DHT22;6448;48.916;8.990;2023-08-24T00:57:30;27.40;45.90
12769;DHT22;6448;48.916;8.990;2023-08-24T00:58:34;27.30;46.00
12769;DHT22;6448;48.916;8.990;2023-08-24T00:59:36;27.30;46.00
12769;DHT22;6448;48.916;8.990;2023-08-24T01:00:37;27.40;46.10
12769;DHT22;6448;48.916;8.990;2023-08-24T01:01:39;27.30;46.10
12769;DHT22;6448;48.916;8.990;2023-08-24T01:02:42;27.30;46.10
12769;DHT22;6448;48.916;8.990;2023-08-24T01:03:44;27.30;46.20
12769;DHT22;6448;48.916;8.990;2023-08-24T01:04:46;27.30;46.20
12769;DHT22;6448;48.916;8.990;2023-08-24T01:05:48;27.30;46.40
12769;DHT22;6448;48.916;8.990;2023-08-24T01:06:49;27.30;46.40
12769;DHT22;6448;48.916;8.990;2023-08-24T01:07:51;27.20;46.30
12769;DHT22;6448;48.916;8.990;2023-08-24T01:08:52;27.20;46.40
12769;DHT22;6448;48.916;8.990;2023-08-24T01:09:55;27.20;46.40
12769;DHT22;6448;48.916;8.990;2023-08-24T01:11:04;27.20;46.50
12769;DHT22;6448;48.916;8.990;2023-08-24T01:12:19;27.20;46.50
12769;DHT22;6448;48.916;8.990;2023-08-24T01:13:30;27.20;46.60
12769;DHT22;6448;48.916;8.990;2023-08-24T01:14:40;27.20;46.60
12769;DHT22;6448;48.916;8.990;2023-08-24T01:15:49;27.20;46.60
12769;DHT22;6448;48.916;8.990;2023-08-24T01:16:54;27.10;46.70
12769;DHT22;6448;48.916;8.990;2023-08-24T01:18:05;27.10;46.70
12769;DHT22;6448;48.916;8.990;2023-08-24T01:19:07;27.10;46.70
12769;DHT22;6448;48.916;8.990;2023-08-24T01:20:14;27.10;46.80
12769;DHT22;6448;48.916;8.990;2023-08-24T01:21:15;27.10;46.80
12769;DHT22;6448;48.916;8.990;2023-08-24T01:22:28;27.10;46.80
12769;DHT22;6448;48.916;8.990;2023-08-24T01:23:41;27.10;46.80
12769;DHT22;6448;48.916;8.990;2023-08-24T01:24:47;27.10;46.90
12769;DHT22;6448;48.916;8.990;2023-08-24T01:26:08;27.10;46.90
12769;DHT22;6448;48.916;8.990;2023-08-24T01:27:11;27.10;46.90
12769;DHT22;6448;48.916;8.990;2023-08-24T01:28:13;27.00;46.80
12769;DHT22;6448;48.916;8.990;2023-08-24T01:29:15;27.10;46.90
12769;DHT22;6448;48.916;8.990;2023-08-24T01:30:19;27.00;46.90
12769;DHT22;6448;48.916;8.990;2023-08-24T01:31:20;27.00;46.90
12769;DHT22;6448;48.916;8.990;2023-08-24T01:32:23;27.00;46.90
12769;DHT22;6448;48.916;8.990;2023-08-24T01:33:24;27.00;46.90
12769;DHT22;6448;48.916;8.990;2023-08-24T01:34:28;27.00;46.90
12769;DHT22;6448;48.916;8.990;2023-08-24T01:35:28;27.00;46.90
12769;DHT22;6448;48.916;8.990;2023-08-24T01:36:30;27.00;46.90
12769;DHT22;6448;48.916;8.990;2023-08-24T01:37:34;27.00;46.90
12769;DHT22;6448;48.916;8.990;2023-08-24T01:38:36;27.00;47.50
12769;DHT22;6448;48.916;8.990;2023-08-24T01:39:42;27.00;46.90
12769;DHT22;6448;48.916;8.990;2023-08-24T01:40:53;27.10;47.60
12769;DHT22;6448;48.916;8.990;2023-08-24T01:42:01;27.00;46.90
12769;DHT22;6448;48.916;8.990;2023-08-24T01:43:05;27.00;46.80
12769;DHT22;6448;48.916;8.990;2023-08-24T01:44:08;27.00;46.80
12769;DHT22;6448;48.916;8.990;2023-08-24T01:45:12;27.00;47.40
12769;DHT22;6448;48.916;8.990;2023-08-24T01:46:15;27.00;46.70
12769;DHT22;6448;48.916;8.990;2023-08-24T01:47:17;27.00;46.80
12769;DHT22;6448;48.916;8.990;2023-08-24T01:48:19;27.00;46.70
12769;DHT22;6448;48.916;8.990;2023-08-24T01:49:22;27.00;46.80
12769;DHT22;6448;48.916;8.990;2023-08-24T01:50:25;26.90;46.70
12769;DHT22;6448;48.916;8.990;2023-08-24T01:51:27;26.90;46.70
12769;DHT22;6448;48.916;8.990;2023-08-24T01:52:28;26.90;46.70
12769;DHT22;6448;48.916;8.990;2023-08-24T01:53:32;26.90;46.70
12769;DHT22;6448;48.916;8.990;2023-08-24T01:54:33;26.90;46.70
12769;DHT22;6448;48.916;8.990;2023-08-24T01:55:35;26.90;46.70
12769;DHT22;6448;48.916;8.990;2023-08-24T01:56:36;26.90;46.70
12769;DHT22;6448;48.916;8.990;2023-08-24T01:57:39;26.90;46.70
12769;DHT22;6448;48.916;8.990;2023-08-24T01:58:40;26.90;46.70
12769;DHT22;6448;48.916;8.990;2023-08-24T01:59:42;26.90;46.70
12769;DHT22;6448;48.916;8.990;2023-08-24T02:00:43;26.90;46.70
12769;DHT22;6448;48.916;8.990;2023-08-24T02:01:44;26.90;46.70
12769;DHT22;6448;48.916;8.990;2023-08-24T02:02:45;26.80;46.60
12769;DHT22;6448;48.916;8.990;2023-08-24T02:03:47;26.80;46.70
12769;DHT22;6448;48.916;8.990;2023-08-24T02:04:48;26.80;46.70
12769;DHT22;6448;48.916;8.990;2023-08-24T02:05:50;26.80;46.70
12769;DHT22;6448;48.916;8.990;2023-08-24T02:06:50;26.80;46.80
12769;DHT22;6448;48.916;8.990;2023-08-24T02:07:53;26.80;46.80
12769;DHT22;6448;48.916;8.990;2023-08-24T02:08:54;26.80;46.90
12769;DHT22;6448;48.916;8.990;2023-08-24T02:09:56;26.80;46.90
12769;DHT22;6448;48.916;8.990;2023-08-24T02:10:57;26.80;46.90
12769;DHT22;6448;48.916;8.990;2023-08-24T02:11:59;26.80;47.00
12769;DHT22;6448;48.916;8.990;2023-08-24T02:13:01;26.80;47.00
12769;DHT22;6448;48.916;8.990;2023-08-24T02:14:03;26.70;47.00
12769;DHT22;6448;48.916;8.990;2023-08-24T02:15:04;26.70;47.00
12769;DHT22;6448;48.916;8.990;2023-08-24T02:16:08;26.80;47.10
12769;DHT22;6448;48.916;8.990;2023-08-24T02:17:10;26.70;47.10
12769;DHT22;6448;48.916;8.990;2023-08-24T02:18:12;26.70;47.10
12769;DHT22;6448;48.916;8.990;2023-08-24T02:19:12;26.70;47.20
12769;DHT22;6448;48.916;8.990;2023-08-24T02:20:15;26.70;47.30
12769;DHT22;6448;48.916;8.990;2023-08-24T02:21:16;26.70;47.30
12769;DHT22;6448;48.916;8.990;2023-08-24T02:22:17;26.70;47.40
12769;DHT22;6448;48.916;8.990;2023-08-24T02:23:18;26.70;47.50
12769;DHT22;6448;48.916;8.990;2023-08-24T02:24:20;26.70;47.50
12769;DHT22;6448;48.916;8.990;2023-08-24T02:25:21;26.70;47.50
12769;DHT22;6448;48.916;8.990;2023-08-24T02:26:23;26.70;47.60
12769;DHT22;6448;48.916;8.990;2023-08-24T02:27:23;26.60;47.50
12769;DHT22;6448;48.916;8.990;2023-08-24T02:28:26;26.60;47.60
12769;DHT22;6448;48.916;8.990;2023-08-24T02:29:27;26.60;47.70
12769;DHT22;6448;48.916;8.990;2023-08-24T02:30:30;26.60;47.80
12769;DHT22;6448;48.916;8.990;2023-08-24T02:31:32;26.60;47.90
12769;DHT22;6448;48.916;8.990;2023-08-24T02:32:34;26.60;48.00
12769;DHT22;6448;48.916;8.990;2023-08-24T02:33:35;26.60;48.00
12769;DHT22;6448;48.916;8.990;2023-08-24T02:34:37;26.60;48.00
12769;DHT22;6448;48.916;8.990;2023-08-24T02:35:39;26.50;48.00
12769;DHT22;6448;48.916;8.990;2023-08-24T02:36:41;26.50;48.10
12769;DHT22;6448;48.916;8.990;2023-08-24T02:37:41;26.50;48.10
12769;DHT22;6448;48.916;8.990;2023-08-24T02:38:43;26.50;48.10
12769;DHT22;6448;48.916;8.990;2023-08-24T02:39:44;26.50;48.10
12769;DHT22;6448;48.916;8.990;2023-08-24T02:40:46;26.50;48.30
12769;DHT22;6448;48.916;8.990;2023-08-24T02:41:47;26.50;48.30
12769;DHT22;6448;48.916;8.990;2023-08-24T02:42:48;26.40;48.20
12769;DHT22;6448;48.916;8.990;2023-08-24T02:43:51;26.50;48.30
12769;DHT22;6448;48.916;8.990;2023-08-24T02:44:53;26.40;48.40
12769;DHT22;6448;48.916;8.990;2023-08-24T02:46:00;26.40;48.40
12769;DHT22;6448;48.916;8.990;2023-08-24T02:47:04;26.40;48.40
12769;DHT22;6448;48.916;8.990;2023-08-24T02:48:05;26.40;48.50
12769;DHT22;6448;48.916;8.990;2023-08-24T02:49:08;26.40;48.50
12769;DHT22;6448;48.916;8.990;2023-08-24T02:50:09;26.40;48.50
12769;DHT22;6448;48.916;8.990;2023-08-24T02:51:11;26.40;48.50
12769;DHT22;6448;48.916;8.990;2023-08-24T02:52:12;26.30;48.50
12769;DHT22;6448;48.916;8.990;2023-08-24T02:53:14;26.40;48.50
12769;DHT22;6448;48.916;8.990;2023-08-24T02:54:14;26.40;48.60
12769;DHT22;6448;48.916;8.990;2023-08-24T02:55:16;26.30;48.60
12769;DHT22;6448;48.916;8.990;2023-08-24T02:56:17;26.40;48.60
12769;DHT22;6448;48.916;8.990;2023-08-24T02:57:19;26.30;48.60
12769;DHT22;6448;48.916;8.990;2023-08-24T02:58:20;26.30;48.60
12769;DHT22;6448;48.916;8.990;2023-08-24T02:59:23;26.30;48.70
12769;DHT22;6448;48.916;8.990;2023-08-24T03:00:24;26.40;48.70
12769;DHT22;6448;48.916;8.990;2023-08-24T03:01:25;26.30;48.70
12769;DHT22;6448;48.916;8.990;2023-08-24T03:02:27;26.30;48.70
12769;DHT22;6448;48.916;8.990;2023-08-24T03:03:28;26.30;48.70
12769;DHT22;6448;48.916;8.990;2023-08-24T03:04:29;26.30;48.70
12769;DHT22;6448;48.916;8.990;2023-08-24T03:05:31;26.30;48.70
12769;DHT22;6448;48.916;8.990;2023-08-24T03:06:32;26.30;48.70
12769;DHT22;6448;48.916;8.990;2023-08-24T03:07:34;26.30;48.70
12769;DHT22;6448;48.916;8.990;2023-08-24T03:08:35;26.30;48.70
12769;DHT22;6448;48.916;8.990;2023-08-24T03:09:37;26.30;48.70
12769;DHT22;6448;48.916;8.990;2023-08-24T03:10:38;26.30;48.80
12769;DHT22;6448;48.916;8.990;2023-08-24T03:11:41;26.30;48.80
12769;DHT22;6448;48.916;8.990;2023-08-24T03:12:41;26.30;48.80
12769;DHT22;6448;48.916;8.990;2023-08-24T03:13:43;26.30;48.80
12769;DHT22;6448;48.916;8.990;2023-08-24T03:14:45;26.30;48.80
12769;DHT22;6448;48.916;8.990;2023-08-24T03:15:47;26.30;48.80
12769;DHT22;6448;48.916;8.990;2023-08-24T03:16:48;26.30;48.80
12769;DHT22;6448;48.916;8.990;2023-08-24T03:17:51;26.30;48.80
12769;DHT22;6448;48.916;8.990;2023-08-24T03:18:52;26.30;48.80
12769;DHT22;6448;48.916;8.990;2023-08-24T03:19:54;26.30;48.80
12769;DHT22;6448;48.916;8.990;2023-08-24T03:20:56;26.30;48.70
12769;DHT22;6448;48.916;8.990;2023-08-24T03:21:57;26.30;48.70
12769;DHT22;6448;48.916;8.990;2023-08-24T03:22:58;26.20;48.70
12769;DHT22;6448;48.916;8.990;2023-08-24T03:23:59;26.20;48.70
12769;DHT22;6448;48.916;8.990;2023-08-24T03:25:01;26.20;48.80
12769;DHT22;6448;48.916;8.990;2023-08-24T03:26:02;26.20;48.90
12769;DHT22;6448;48.916;8.990;2023-08-24T03:27:04;26.20;48.90
12769;DHT22;6448;48.916;8.990;2023-08-24T03:28:06;26.20;48.90
12769;DHT22;6448;48.916;8.990;2023-08-24T03:29:08;26.20;49.00
12769;DHT22;6448;48.916;8.990;2023-08-24T03:30:12;26.20;49.00
12769;DHT22;6448;48.916;8.990;2023-08-24T03:31:13;26.20;49.10
12769;DHT22;6448;48.916;8.990;2023-08-24T03:32:14;26.10;49.10
12769;DHT22;6448;48.916;8.990;2023-08-24T03:33:16;26.10;49.20
12769;DHT22;6448;48.916;8.990;2023-08-24T03:34:17;26.10;49.20
12769;DHT22;6448;48.916;8.990;2023-08-24T03:35:20;26.10;49.20
12769;DHT22;6448;48.916;8.990;2023-08-24T03:36:21;26.10;49.20
12769;DHT22;6448;48.916;8.990;2023-08-24T03:37:23;26.10;49.20
12769;DHT22;6448;48.916;8.990;2023-08-24T03:38:24;26.10;49.20
12769;DHT22;6448;48.916;8.990;2023-08-24T03:39:26;26.10;49.20
12769;DHT22;6448;48.916;8.990;2023-08-24T03:40:27;26.10;49.30
12769;DHT22;6448;48.916;8.990;2023-08-24T03:41:29;26.10;49.30
12769;DHT22;6448;48.916;8.990;2023-08-24T03:42:30;26.10;49.30
12769;DHT22;6448;48.916;8.990;2023-08-24T03:43:33;26.10;49.30
12769;DHT22;6448;48.916;8.990;2023-08-24T03:44:34;26.10;49.40
12769;DHT22;6448;48.916;8.990;2023-08-24T03:45:37;26.10;49.40
12769;DHT22;6448;48.916;8.990;2023-08-24T03:46:39;26.10;49.40
12769;DHT22;6448;48.916;8.990;2023-08-24T03:47:41;26.10;49.40
12769;DHT22;6448;48.916;8.990;2023-08-24T03:48:42;26.10;49.40
12769;DHT22;6448;48.916;8.990;2023-08-24T03:49:44;26.10;49.40
12769;DHT22;6448;48.916;8.990;2023-08-24T03:50:46;26.10;49.40
12769;DHT22;6448;48.916;8.990;2023-08-24T03:51:48;26.10;49.50
12769;DHT22;6448;48.916;8.990;2023-08-24T03:52:50;26.10;49.50
12769;DHT22;6448;48.916;8.990;2023-08-24T03:53:51;26.00;49.50
12769;DHT22;6448;48.916;8.990;2023-08-24T03:54:53;26.10;49.60
12769;DHT22;6448;48.916;8.990;2023-08-24T03:55:54;26.00;49.60
12769;DHT22;6448;48.916;8.990;2023-08-24T03:56:56;26.10;49.70
12769;DHT22;6448;48.916;8.990;2023-08-24T03:57:56;26.10;49.80
12769;DHT22;6448;48.916;8.990;2023-08-24T03:59:00;26.00;49.60
12769;DHT22;6448;48.916;8.990;2023-08-24T04:00:03;26.00;49.70
12769;DHT22;6448;48.916;8.990;2023-08-24T04:01:15;26.10;49.80
12769;DHT22;6448;48.916;8.990;2023-08-24T04:02:16;26.00;49.70
12769;DHT22;6448;48.916;8.990;2023-08-24T04:03:18;26.00;49.80
12769;DHT22;6448;48.916;8.990;2023-08-24T04:04:19;26.00;49.80
12769;DHT22;6448;48.916;8.990;2023-08-24T04:05:21;26.00;49.90
12769;DHT22;6448;48.916;8.990;2023-08-24T04:06:22;26.00;49.90
12769;DHT22;6448;48.916;8.990;2023-08-24T04:07:24;26.00;49.90
12769;DHT22;6448;48.916;8.990;2023-08-24T04:08:25;26.00;50.00
12769;DHT22;6448;48.916;8.990;2023-08-24T04:09:27;26.00;50.00
12769;DHT22;6448;48.916;8.990;2023-08-24T04:10:28;26.00;50.00
12769;DHT22;6448;48.916;8.990;2023-08-24T04:11:32;26.00;50.10
12769;DHT22;6448;48.916;8.990;2023-08-24T04:12:33;26.00;50.10
12769;DHT22;6448;48.916;8.990;2023-08-24T04:13:35;26.00;50.10
12769;DHT22;6448;48.916;8.990;2023-08-24T04:14:36;26.00;50.20
12769;DHT22;6448;48.916;8.990;2023-08-24T04:15:37;26.10;50.40
12769;DHT22;6448;48.916;8.990;2023-08-24T04:16:39;26.00;50.30
12769;DHT22;6448;48.916;8.990;2023-08-24T04:17:42;26.00;50.30
12769;DHT22;6448;48.916;8.990;2023-08-24T04:18:43;26.00;50.30
12769;DHT22;6448;48.916;8.990;2023-08-24T04:19:46;26.00;50.30
12769;DHT22;6448;48.916;8.990;2023-08-24T04:20:47;26.00;50.30
12769;DHT22;6448;48.916;8.990;2023-08-24T04:21:48;26.00;50.40
12769;DHT22;6448;48.916;8.990;2023-08-24T04:22:49;26.00;50.50
12769;DHT22;6448;48.916;8.990;2023-08-24T04:23:51;26.00;50.50
12769;DHT22;6448;48.916;8.990;2023-08-24T04:24:51;26.00;50.60
12769;DHT22;6448;48.916;8.990;2023-08-24T04:25:53;26.00;50.70
12769;DHT22;6448;48.916;8.990;2023-08-24T04:26:54;26.00;50.70
12769;DHT22;6448;48.916;8.990;2023-08-24T04:27:56;26.00;50.70
12769;DHT22;6448;48.916;8.990;2023-08-24T04:28:57;26.00;50.70
12769;DHT22;6448;48.916;8.990;2023-08-24T04:29:59;26.00;50.70
12769;DHT22;6448;48.916;8.990;2023-08-24T04:31:01;26.00;50.70
12769;DHT22;6448;48.916;8.990;2023-08-24T04:32:03;26.00;50.80
12769;DHT22;6448;48.916;8.990;2023-08-24T04:33:05;26.00;50.70
12769;DHT22;6448;48.916;8.990;2023-08-24T04:34:06;26.00;50.70
12769;DHT22;6448;48.916;8.990;2023-08-24T04:35:08;26.00;50.70
12769;DHT22;6448;48.916;8.990;2023-08-24T04:36:09;26.00;50.70
12769;DHT22;6448;48.916;8.990;2023-08-24T04:37:11;26.00;50.70
12769;DHT22;6448;48.916;8.990;2023-08-24T04:38:12;26.00;50.70
12769;DHT22;6448;48.916;8.990;2023-08-24T04:39:13;26.00;50.70
12769;DHT22;6448;48.916;8.990;2023-08-24T04:40:16;26.00;50.70
12769;DHT22;6448;48.916;8.990;2023-08-24T04:41:18;25.90;50.60
12769;DHT22;6448;48.916;8.990;2023-08-24T04:42:18;26.00;50.70
12769;DHT22;6448;48.916;8.990;2023-08-24T04:43:21;26.00;50.80
12769;DHT22;6448;48.916;8.990;2023-08-24T04:44:23;26.00;50.70
12769;DHT22;6448;48.916;8.990;2023-08-24T04:45:24;25.90;50.80
12769;DHT22;6448;48.916;8.990;2023-08-24T04:46:25;25.90;50.80
12769;DHT22;6448;48.916;8.990;2023-08-24T04:47:28;25.90;50.70
12769;DHT22;6448;48.916;8.990;2023-08-24T04:48:30;25.90;50.70
12769;DHT22;6448;48.916;8.990;2023-08-24T04:49:33;25.80;50.60
12769;DHT22;6448;48.916;8.990;2023-08-24T04:50:34;25.90;50.70
12769;DHT22;6448;48.916;8.990;2023-08-24T04:51:35;25.90;50.70
12769;DHT22;6448;48.916;8.990;2023-08-24T04:52:37;25.90;50.70
12769;DHT22;6448;48.916;8.990;2023-08-24T04:53:38;25.90;50.80
12769;DHT22;6448;48.916;8.990;2023-08-24T04:54:39;25.90;50.80
12769;DHT22;6448;48.916;8.990;2023-08-24T04:55:40;25.90;50.80
12769;DHT22;6448;48.916;8.990;2023-08-24T04:56:42;25.90;50.80
12769;DHT22;6448;48.916;8.990;2023-08-24T04:57:43;25.90;50.80
12769;DHT22;6448;48.916;8.990;2023-08-24T04:58:52;25.90;50.90
12769;DHT22;6448;48.916;8.990;2023-08-24T04:59:54;25.90;50.90
12769;DHT22;6448;48.916;8.990;2023-08-24T05:00:56;25.90;50.90
12769;DHT22;6448;48.916;8.990;2023-08-24T05:01:57;25.90;50.80
12769;DHT22;6448;48.916;8.990;2023-08-24T05:03:00;25.90;50.80
12769;DHT22;6448;48.916;8.990;2023-08-24T05:04:01;25.80;50.70
12769;DHT22;6448;48.916;8.990;2023-08-24T05:05:04;25.80;50.70
12769;DHT22;6448;48.916;8.990;2023-08-24T05:06:05;25.80;50.80
12769;DHT22;6448;48.916;8.990;2023-08-24T05:07:07;25.80;50.80
12769;DHT22;6448;48.916;8.990;2023-08-24T05:08:07;25.80;50.80
12769;DHT22;6448;48.916;8.990;2023-08-24T05:09:10;25.80;50.90
12769;DHT22;6448;48.916;8.990;2023-08-24T05:10:11;25.80;50.90
12769;DHT22;6448;48.916;8.990;2023-08-24T05:11:14;25.80;50.90
12769;DHT22;6448;48.916;8.990;2023-08-24T05:12:15;25.80;51.00
12769;DHT22;6448;48.916;8.990;2023-08-24T05:13:16;25.80;51.00
12769;DHT22;6448;48.916;8.990;2023-08-24T05:14:17;25.80;51.00
12769;DHT22;6448;48.916;8.990;2023-08-24T05:15:19;25.80;51.00
12769;DHT22;6448;48.916;8.990;2023-08-24T05:16:20;25.80;51.10
12769;DHT22;6448;48.916;8.990;2023-08-24T05:17:21;25.70;51.10
12769;DHT22;6448;48.916;8.990;2023-08-24T05:18:26;25.80;51.10
12769;DHT22;6448;48.916;8.990;2023-08-24T05:19:28;25.80;51.10
12769;DHT22;6448;48.916;8.990;2023-08-24T05:20:29;25.80;51.20
12769;DHT22;6448;48.916;8.990;2023-08-24T05:21:31;25.80;51.20
12769;DHT22;6448;48.916;8.990;2023-08-24T05:22:32;25.80;51.30
12769;DHT22;6448;48.916;8.990;2023-08-24T05:23:34;25.80;51.30
12769;DHT22;6448;48.916;8.990;2023-08-24T05:24:35;25.80;51.40
12769;DHT22;6448;48.916;8.990;2023-08-24T05:25:37;25.80;51.40
12769;DHT22;6448;48.916;8.990;2023-08-24T05:26:37;25.80;51.40
12769;DHT22;6448;48.916;8.990;2023-08-24T05:27:39;25.80;51.50
12769;DHT22;6448;48.916;8.990;2023-08-24T05:28:40;25.80;51.50
12769;DHT22;6448;48.916;8.990;2023-08-24T05:29:42;25.80;51.60
12769;DHT22;6448;48.916;8.990;2023-08-24T05:30:44;25.90;51.70
12769;DHT22;6448;48.916;8.990;2023-08-24T05:31:44;25.80;51.70
12769;DHT22;6448;48.916;8.990;2023-08-24T05:32:46;25.90;51.80
12769;DHT22;6448;48.916;8.990;2023-08-24T05:33:48;25.80;51.70
12769;DHT22;6448;48.916;8.990;2023-08-24T05:34:50;25.80;51.90
12769;DHT22;6448;48.916;8.990;2023-08-24T05:35:51;25.90;52.00
12769;DHT22;6448;48.916;8.990;2023-08-24T05:36:53;25.80;52.00
12769;DHT22;6448;48.916;8.990;2023-08-24T05:37:54;25.80;52.00
12769;DHT22;6448;48.916;8.990;2023-08-24T05:38:56;25.80;52.00
12769;DHT22;6448;48.916;8.990;2023-08-24T05:39:57;25.90;52.00
12769;DHT22;6448;48.916;8.990;2023-08-24T05:40:59;25.90;52.10
12769;DHT22;6448;48.916;8.990;2023-08-24T05:42:00;25.80;52.00
12769;DHT22;6448;48.916;8.990;2023-08-24T05:43:01;25.80;52.00
12769;DHT22;6448;48.916;8.990;2023-08-24T05:44:02;25.90;52.10
12769;DHT22;6448;48.916;8.990;2023-08-24T05:45:05;25.90;52.10
12769;DHT22;6448;48.916;8.990;2023-08-24T05:46:06;25.90;52.10
12769;DHT22;6448;48.916;8.990;2023-08-24T05:47:07;25.90;52.10
12769;DHT22;6448;48.916;8.990;2023-08-24T05:48:08;25.90;52.10
12769;DHT22;6448;48.916;8.990;2023-08-24T05:49:10;25.90;52.10
12769;DHT22;6448;48.916;8.990;2023-08-24T05:50:11;25.90;52.10
12769;DHT22;6448;48.916;8.990;2023-08-24T05:51:13;25.90;52.10
12769;DHT22;6448;48.916;8.990;2023-08-24T05:52:14;25.90;52.10
12769;DHT22;6448;48.916;8.990;2023-08-24T05:53:16;25.90;52.20
12769;DHT22;6448;48.916;8.990;2023-08-24T05:54:16;25.90;52.30
12769;DHT22;6448;48.916;8.990;2023-08-24T05:55:19;25.90;52.20
12769;DHT22;6448;48.916;8.990;2023-08-24T05:56:20;25.90;52.20
12769;DHT22;6448;48.916;8.990;2023-08-24T05:57:22;25.90;52.20
12769;DHT22;6448;48.916;8.990;2023-08-24T05:58:23;25.90;52.10
12769;DHT22;6448;48.916;8.990;2023-08-24T05:59:25;25.90;52.10
12769;DHT22;6448;48.916;8.990;2023-08-24T06:00:25;25.90;52.10
12769;DHT22;6448;48.916;8.990;2023-08-24T06:01:27;25.90;52.10
12769;DHT22;6448;48.916;8.990;2023-08-24T06:02:29;25.90;52.10
12769;DHT22;6448;48.916;8.990;2023-08-24T06:03:30;25.90;52.10
12769;DHT22;6448;48.916;8.990;2023-08-24T06:04:33;25.90;52.20
12769;DHT22;6448;48.916;8.990;2023-08-24T06:05:34;25.90;52.20
12769;DHT22;6448;48.916;8.990;2023-08-24T06:06:36;25.90;52.20
12769;DHT22;6448;48.916;8.990;2023-08-24T06:07:38;25.90;52.20
12769;DHT22;6448;48.916;8.990;2023-08-24T06:08:39;25.90;52.30
12769;DHT22;6448;48.916;8.990;2023-08-24T06:09:40;25.90;52.30
12769;DHT22;6448;48.916;8.990;2023-08-24T06:10:41;25.90;52.30
12769;DHT22;6448;48.916;8.990;2023-08-24T06:11:43;26.00;52.50
12769;DHT22;6448;48.916;8.990;2023-08-24T06:12:44;25.90;52.50
12769;DHT22;6448;48.916;8.990;2023-08-24T06:13:46;26.00;52.70
12769;DHT22;6448;48.916;8.990;2023-08-24T06:14:47;26.00;52.70
12769;DHT22;6448;48.916;8.990;2023-08-24T06:15:48;26.00;52.70
12769;DHT22;6448;48.916;8.990;2023-08-24T06:16:50;26.00;52.80
12769;DHT22;6448;48.916;8.990;2023-08-24T06:17:53;26.00;52.80
12769;DHT22;6448;48.916;8.990;2023-08-24T06:18:54;26.00;52.80
12769;DHT22;6448;48.916;8.990;2023-08-24T06:19:57;26.00;52.90
12769;DHT22;6448;48.916;8.990;2023-08-24T06:20:58;26.00;53.10
12769;DHT22;6448;48.916;8.990;2023-08-24T06:22:00;26.00;53.10
12769;DHT22;6448;48.916;8.990;2023-08-24T06:23:01;26.00;53.00
12769;DHT22;6448;48.916;8.990;2023-08-24T06:24:03;26.00;53.00
12769;DHT22;6448;48.916;8.990;2023-08-24T06:25:05;26.00;52.90
12769;DHT22;6448;48.916;8.990;2023-08-24T06:26:09;26.00;52.90
12769;DHT22;6448;48.916;8.990;2023-08-24T06:27:10;26.10;52.90
12769;DHT22;6448;48.916;8.990;2023-08-24T06:28:11;26.00;52.80
12769;DHT22;6448;48.916;8.990;2023-08-24T06:29:13;26.00;52.80
12769;DHT22;6448;48.916;8.990;2023-08-24T06:30:14;26.10;52.90
12769;DHT22;6448;48.916;8.990;2023-08-24T06:31:16;26.10;52.80
12769;DHT22;6448;48.916;8.990;2023-08-24T06:32:17;26.10;52.90
12769;DHT22;6448;48.916;8.990;2023-08-24T06:33:18;26.10;53.00
12769;DHT22;6448;48.916;8.990;2023-08-24T06:34:19;26.10;53.00
12769;DHT22;6448;48.916;8.990;2023-08-24T06:35:22;26.10;53.10
12769;DHT22;6448;48.916;8.990;2023-08-24T06:36:23;26.20;53.10
12769;DHT22;6448;48.916;8.990;2023-08-24T06:37:25;26.10;53.00
12769;DHT22;6448;48.916;8.990;2023-08-24T06:38:26;26.20;53.20